WetterOnline ( http://www.wetteronline.de )

Wetter aktuell Marburg

Aktuelles Wetter: Gießen (195m)

6-stündlich | Neueste Meldungen
Ortszeit Temperatur Wetter
Mi, 17.10. 14:00 20.6° C leicht bewölkt
Mi, 17.10. 8:00 7.5° C Nebel
Mi, 17.10. 2:00 11.2° C wolkenlos
Di, 16.10. 20:00 15.6° C bedeckt
Di, 16.10. 14:00 22.4° C leicht bewölkt
Di, 16.10. 8:00 7.0° C Nebel
Di, 16.10. 2:00 8.9° C wolkenlos
Mo, 15.10. 20:00 16.8° C wolkenlos
Ortszeit Temperatur Wetter
Mi, 17.10. 18:00 20.6° C bedeckt
Mi, 17.10. 17:50 20.6° C bedeckt
Mi, 17.10. 17:40 20.8° C bedeckt
Mi, 17.10. 17:30 21.5° C bedeckt
Mi, 17.10. 17:20 21.5° C bedeckt
Mi, 17.10. 17:10 21.9° C bedeckt
Mi, 17.10. 17:00 22.1° C wolkig
Mi, 17.10. 16:30 22.2° C bewölkt
Mi, 17.10. 16:00 21.8° C wolkig
Mi, 17.10. 15:30 21.4° C bewölkt
Mi, 17.10. 15:00 21.2° C leicht bewölkt
Ortszeit Relative Feuchte Sichtweite
Mi, 17.10. 14:00 55% 24 km
Mi, 17.10. 8:00 98% 0.2 km
Mi, 17.10. 2:00 97% 14 km
Di, 16.10. 20:00 74% 35 km
Di, 16.10. 14:00 46% 26 km
Di, 16.10. 8:00 100% 0.9 km
Di, 16.10. 2:00 93% 10 km
Mo, 15.10. 20:00 68% 40 km
Ortszeit Relative Feuchte Sichtweite
Mi, 17.10. 18:00 51% 45 km
Mi, 17.10. 17:50 51% -
Mi, 17.10. 17:40 52% -
Mi, 17.10. 17:30 48% 40 km
Mi, 17.10. 17:20 48% -
Mi, 17.10. 17:10 48% -
Mi, 17.10. 17:00 46% 40 km
Mi, 17.10. 16:30 48% 40 km
Mi, 17.10. 16:00 46% 35 km
Mi, 17.10. 15:30 47% 30 km
Mi, 17.10. 15:00 47% 30 km
Ortszeit Niederschlagsmenge Niederschlagsart
Mi, 17.10. 14:00 0.0 l/m2 in 6 Std. -
Mi, 17.10. 8:00 0.0 l/m2 in 12 Std. -
Mi, 17.10. 2:00 0.0 l/m2 in 6 Std. -
Di, 16.10. 20:00 0.0 l/m2 in 12 Std. -
Di, 16.10. 14:00 0.0 l/m2 in 6 Std. -
Di, 16.10. 8:00 0.0 l/m2 in 12 Std. -
Di, 16.10. 2:00 0.0 l/m2 in 6 Std. -
Mo, 15.10. 20:00 0.0 l/m2 in 12 Std. -
Ortszeit Niederschlagsmenge Niederschlagsart
Mi, 17.10. 18:00 0.0 l/m2 in 1 Std. -
Mi, 17.10. 17:50 keine Meldung -
Mi, 17.10. 17:40 keine Meldung -
Mi, 17.10. 17:30 0.0 l/m2 in 1 Std. -
Mi, 17.10. 17:20 keine Meldung -
Mi, 17.10. 17:10 keine Meldung -
Mi, 17.10. 17:00 0.0 l/m2 in 1 Std. -
Mi, 17.10. 16:30 0.0 l/m2 in 1 Std. -
Mi, 17.10. 16:00 0.0 l/m2 in 1 Std. -
Mi, 17.10. 15:30 0.0 l/m2 in 1 Std. -
Mi, 17.10. 15:00 0.0 l/m2 in 1 Std. -
Ortszeit Stärke Spitze Richtung
km/h Bft. km/h Grad Sektor
Mi, 17.10. 14:00 2 1 9 160° S
Mi, 17.10. 8:00 4 1 11 350° N
Mi, 17.10. 2:00 0 0 11 - -
Di, 16.10. 20:00 4 1 25 340° N
Di, 16.10. 14:00 4 1 11 90° O
Di, 16.10. 8:00 4 1 7 80° O
Di, 16.10. 2:00 2 1 9 340° N
Mo, 15.10. 20:00 4 1 7 70° O
Ortszeit Stärke Spitze Richtung
km/h Bft. km/h Grad Sektor
Mi, 17.10. 18:00 4 1 7 80° O
Mi, 17.10. 17:50 4 1 - 80° O
Mi, 17.10. 17:40 4 1 - 90° O
Mi, 17.10. 17:30 4 1 7 90° O
Mi, 17.10. 17:20 4 1 - 90° O
Mi, 17.10. 17:10 4 1 - 90° O
Mi, 17.10. 17:00 7 2 11 40° NO
Mi, 17.10. 16:30 4 1 7 120° SO
Mi, 17.10. 16:00 4 1 7 120° SO
Mi, 17.10. 15:30 4 1 7 180° S
Mi, 17.10. 15:00 4 1 7 210° SW
Ortszeit Untergrenze Bedeckung Gattung
total tief tief mittel hoch
Mi, 17.10. 14:00 7200 m 8/8 0/8 - - -
Mi, 17.10. 8:00 1410 m 2/8 - - - -
Mi, 17.10. 2:00 - 0/8 0/8 - - -
Di, 16.10. 20:00 3900 m 8/8 8/8 - - -
Di, 16.10. 14:00 3900 m 2/8 5/8 - - -
Di, 16.10. 8:00 - 0/8 0/8 - - -
Di, 16.10. 2:00 - 0/8 0/8 - - -
Mo, 15.10. 20:00 - 0/8 0/8 - - -
Ortszeit Bedeckungsgrad in Achtel und Wolkenuntergrenze
Mi, 17.10. 18:00 8(6300m) 8(8400m) 8(9000m)
Mi, 17.10. 17:50 8(6300m) 8(8400m) 8(9000m)
Mi, 17.10. 17:40 8(6300m) 8(8100m) 8(9000m)
Mi, 17.10. 17:30 8(6300m) 8(7200m) 8(8100m)
Mi, 17.10. 17:20 8(6300m) 8(7200m) 8(8100m)
Mi, 17.10. 17:10 8(6300m) 8(6900m) 8(7500m)
Mi, 17.10. 17:00 8(6600m) 8(7500m) 8(8400m)
Mi, 17.10. 16:30 7(6600m) 7(6900m) 8(9000m)
Mi, 17.10. 16:00 7(6900m) 8(7500m) 8(8700m)
Mi, 17.10. 15:30 7(6900m) 8(7800m) 8(10500m)
Mi, 17.10. 15:00 8(7200m) 8(7800m) 8(9000m)
Ortszeit Luftdruck NN (hPa) Tendenz (hPa in 3 Std.)
Mi, 17.10. 14:00 1019 - 0,7
Mi, 17.10. 8:00 1020 + 0,1
Mi, 17.10. 2:00 1020 0,0
Di, 16.10. 20:00 1019 + 0,5
Di, 16.10. 14:00 1018 - 0,6
Di, 16.10. 8:00 1019 + 0,9
Di, 16.10. 2:00 1018 + 0,9
Mo, 15.10. 20:00 1015 + 1,3
Ortszeit Luftdruck NN (hPa) Tendenz (hPa in 3 Std.)
Mi, 17.10. 18:00 1018 - 0,4
Mi, 17.10. 17:50 1018 keine Meldung
Mi, 17.10. 17:40 1018 keine Meldung
Mi, 17.10. 17:30 1017 - 0,8
Mi, 17.10. 17:20 1017 keine Meldung
Mi, 17.10. 17:10 1017 keine Meldung
Mi, 17.10. 17:00 1017 - 1,1
Mi, 17.10. 16:30 1017 - 1,2
Mi, 17.10. 16:00 1018 - 1,3
Mi, 17.10. 15:30 1018 - 1,4
Mi, 17.10. 15:00 1018 - 1,5
Ortszeit Schneehöhe (cm)
Mi, 17.10. 14:00 0
Mi, 17.10. 8:00 0
Mi, 17.10. 2:00 0
Di, 16.10. 20:00 0
Di, 16.10. 14:00 0
Di, 16.10. 8:00 0
Di, 16.10. 2:00 0
Mo, 15.10. 20:00 0
Ortszeit Schneehöhe (cm)
Mi, 17.10. 18:00 0
Mi, 17.10. 17:50 0
Mi, 17.10. 17:40 0
Mi, 17.10. 17:30 0
Mi, 17.10. 17:20 0
Mi, 17.10. 17:10 0
Mi, 17.10. 17:00 0
Mi, 17.10. 16:30 0
Mi, 17.10. 16:00 0
Mi, 17.10. 15:30 0
Mi, 17.10. 15:00 0
Link zu dieser Seite / Seite empfehlen

Das Wetter in ...